sensor_id;sensor_type;location;lat;lon;timestamp;P1;durP1;ratioP1;P2;durP2;ratioP2
59040;SDS011;44825;53.200;6.448;2022-09-12T00:02:02;11.02;;;8.10;;
59040;SDS011;44825;53.200;6.448;2022-09-12T00:04:30;11.63;;;8.65;;
59040;SDS011;44825;53.200;6.448;2022-09-12T00:06:58;7.47;;;5.43;;
59040;SDS011;44825;53.200;6.448;2022-09-12T00:09:25;9.85;;;5.53;;
59040;SDS011;44825;53.200;6.448;2022-09-12T00:11:53;9.95;;;8.32;;
59040;SDS011;44825;53.200;6.448;2022-09-12T00:14:20;9.82;;;8.10;;
59040;SDS011;44825;53.200;6.448;2022-09-12T00:16:48;9.85;;;7.85;;
59040;SDS011;44825;53.200;6.448;2022-09-12T00:19:15;11.88;;;8.95;;
59040;SDS011;44825;53.200;6.448;2022-09-12T00:21:43;9.77;;;8.23;;
59040;SDS011;44825;53.200;6.448;2022-09-12T00:24:12;12.50;;;8.57;;
59040;SDS011;44825;53.200;6.448;2022-09-12T00:26:39;11.18;;;7.90;;
59040;SDS011;44825;53.200;6.448;2022-09-12T00:29:06;12.55;;;9.82;;
59040;SDS011;44825;53.200;6.448;2022-09-12T00:31:34;9.45;;;8.18;;
59040;SDS011;44825;53.200;6.448;2022-09-12T00:34:01;14.68;;;9.68;;
59040;SDS011;44825;53.200;6.448;2022-09-12T00:36:28;9.82;;;8.75;;
59040;SDS011;44825;53.200;6.448;2022-09-12T00:38:56;12.43;;;9.05;;
59040;SDS011;44825;53.200;6.448;2022-09-12T00:41:26;11.38;;;9.95;;
59040;SDS011;44825;53.200;6.448;2022-09-12T00:43:56;10.00;;;8.77;;
59040;SDS011;44825;53.200;6.448;2022-09-12T00:46:26;11.23;;;9.30;;
59040;SDS011;44825;53.200;6.448;2022-09-12T00:49:00;11.30;;;9.45;;
59040;SDS011;44825;53.200;6.448;2022-09-12T00:51:31;10.32;;;9.32;;
59040;SDS011;44825;53.200;6.448;2022-09-12T00:54:02;13.50;;;8.85;;
59040;SDS011;44825;53.200;6.448;2022-09-12T00:56:35;10.90;;;8.70;;
59040;SDS011;44825;53.200;6.448;2022-09-12T00:59:05;12.38;;;9.02;;
59040;SDS011;44825;53.200;6.448;2022-09-12T01:01:38;11.95;;;9.10;;
59040;SDS011;44825;53.200;6.448;2022-09-12T01:04:06;10.20;;;8.13;;
59040;SDS011;44825;53.200;6.448;2022-09-12T01:06:36;9.05;;;7.72;;
59040;SDS011;44825;53.200;6.448;2022-09-12T01:09:06;10.60;;;8.95;;
59040;SDS011;44825;53.200;6.448;2022-09-12T01:11:36;9.50;;;8.50;;
59040;SDS011;44825;53.200;6.448;2022-09-12T01:14:05;9.02;;;8.00;;
59040;SDS011;44825;53.200;6.448;2022-09-12T01:16:33;9.35;;;7.70;;
59040;SDS011;44825;53.200;6.448;2022-09-12T01:19:05;9.23;;;8.23;;
59040;SDS011;44825;53.200;6.448;2022-09-12T01:21:44;9.40;;;8.18;;
59040;SDS011;44825;53.200;6.448;2022-09-12T01:27:27;8.02;;;6.47;;
59040;SDS011;44825;53.200;6.448;2022-09-12T01:30:21;8.88;;;7.35;;
59040;SDS011;44825;53.200;6.448;2022-09-12T01:33:09;9.98;;;8.23;;
59040;SDS011;44825;53.200;6.448;2022-09-12T01:35:54;8.10;;;7.05;;
59040;SDS011;44825;53.200;6.448;2022-09-12T01:38:34;10.23;;;7.78;;
59040;SDS011;44825;53.200;6.448;2022-09-12T01:41:07;8.68;;;7.50;;
59040;SDS011;44825;53.200;6.448;2022-09-12T01:43:41;10.45;;;7.45;;
59040;SDS011;44825;53.200;6.448;2022-09-12T01:46:17;7.78;;;6.75;;
59040;SDS011;44825;53.200;6.448;2022-09-12T01:48:49;8.77;;;7.15;;
59040;SDS011;44825;53.200;6.448;2022-09-12T01:51:22;9.75;;;8.07;;
59040;SDS011;44825;53.200;6.448;2022-09-12T01:53:57;9.07;;;7.53;;
59040;SDS011;44825;53.200;6.448;2022-09-12T01:56:29;10.43;;;8.00;;
59040;SDS011;44825;53.200;6.448;2022-09-12T01:59:01;10.13;;;9.13;;
59040;SDS011;44825;53.200;6.448;2022-09-12T02:01:33;9.52;;;8.30;;
59040;SDS011;44825;53.200;6.448;2022-09-12T02:04:08;9.73;;;8.30;;
59040;SDS011;44825;53.200;6.448;2022-09-12T02:06:41;8.77;;;7.78;;
59040;SDS011;44825;53.200;6.448;2022-09-12T02:09:15;10.90;;;8.65;;
59040;SDS011;44825;53.200;6.448;2022-09-12T02:11:47;9.35;;;7.50;;
59040;SDS011;44825;53.200;6.448;2022-09-12T02:14:19;9.25;;;6.90;;
59040;SDS011;44825;53.200;6.448;2022-09-12T02:16:51;10.27;;;7.55;;
59040;SDS011;44825;53.200;6.448;2022-09-12T02:19:23;11.57;;;7.97;;
59040;SDS011;44825;53.200;6.448;2022-09-12T02:21:57;46.45;;;9.77;;
59040;SDS011;44825;53.200;6.448;2022-09-12T02:24:27;34.13;;;8.38;;
59040;SDS011;44825;53.200;6.448;2022-09-12T02:26:57;14.27;;;7.47;;
59040;SDS011;44825;53.200;6.448;2022-09-12T02:29:28;14.45;;;6.93;;
59040;SDS011;44825;53.200;6.448;2022-09-12T02:31:58;6.82;;;5.75;;
59040;SDS011;44825;53.200;6.448;2022-09-12T02:34:31;9.77;;;6.45;;
59040;SDS011;44825;53.200;6.448;2022-09-12T02:37:10;9.80;;;6.35;;
59040;SDS011;44825;53.200;6.448;2022-09-12T02:39:44;11.73;;;7.10;;
59040;SDS011;44825;53.200;6.448;2022-09-12T02:42:11;11.27;;;5.82;;
59040;SDS011;44825;53.200;6.448;2022-09-12T02:44:39;42.03;;;6.95;;
59040;SDS011;44825;53.200;6.448;2022-09-12T02:47:09;7.63;;;5.90;;
59040;SDS011;44825;53.200;6.448;2022-09-12T02:49:41;8.05;;;4.97;;
59040;SDS011;44825;53.200;6.448;2022-09-12T02:52:08;9.52;;;6.15;;
59040;SDS011;44825;53.200;6.448;2022-09-12T02:54:36;14.77;;;5.68;;
59040;SDS011;44825;53.200;6.448;2022-09-12T02:57:04;7.43;;;3.80;;
59040;SDS011;44825;53.200;6.448;2022-09-12T02:59:40;4.75;;;3.53;;
59040;SDS011;44825;53.200;6.448;2022-09-12T03:02:13;4.85;;;3.20;;
59040;SDS011;44825;53.200;6.448;2022-09-12T03:04:56;13.73;;;3.55;;
59040;SDS011;44825;53.200;6.448;2022-09-12T03:07:38;7.28;;;3.97;;
59040;SDS011;44825;53.200;6.448;2022-09-12T03:10:21;11.43;;;3.95;;
59040;SDS011;44825;53.200;6.448;2022-09-12T03:12:55;8.05;;;3.25;;
59040;SDS011;44825;53.200;6.448;2022-09-12T03:15:39;6.65;;;3.42;;
59040;SDS011;44825;53.200;6.448;2022-09-12T03:18:19;13.13;;;4.53;;
59040;SDS011;44825;53.200;6.448;2022-09-12T03:20:59;14.43;;;4.28;;
59040;SDS011;44825;53.200;6.448;2022-09-12T03:23:30;5.57;;;3.53;;
59040;SDS011;44825;53.200;6.448;2022-09-12T03:26:05;8.45;;;4.13;;
59040;SDS011;44825;53.200;6.448;2022-09-12T03:28:38;5.97;;;4.30;;
59040;SDS011;44825;53.200;6.448;2022-09-12T03:31:11;13.02;;;4.10;;
59040;SDS011;44825;53.200;6.448;2022-09-12T03:33:41;6.63;;;3.85;;
59040;SDS011;44825;53.200;6.448;2022-09-12T03:36:11;10.45;;;5.07;;
59040;SDS011;44825;53.200;6.448;2022-09-12T03:38:41;5.88;;;4.18;;
59040;SDS011;44825;53.200;6.448;2022-09-12T03:41:08;7.47;;;5.95;;
59040;SDS011;44825;53.200;6.448;2022-09-12T03:43:36;6.57;;;5.32;;
59040;SDS011;44825;53.200;6.448;2022-09-12T03:46:03;10.27;;;6.00;;
59040;SDS011;44825;53.200;6.448;2022-09-12T03:48:30;5.53;;;3.90;;
59040;SDS011;44825;53.200;6.448;2022-09-12T03:51:00;5.40;;;3.55;;
59040;SDS011;44825;53.200;6.448;2022-09-12T03:53:27;7.88;;;3.90;;
59040;SDS011;44825;53.200;6.448;2022-09-12T03:55:55;5.03;;;3.80;;
59040;SDS011;44825;53.200;6.448;2022-09-12T03:58:22;7.60;;;5.90;;
59040;SDS011;44825;53.200;6.448;2022-09-12T04:00:50;8.73;;;6.50;;
59040;SDS011;44825;53.200;6.448;2022-09-12T04:03:17;8.90;;;6.35;;
59040;SDS011;44825;53.200;6.448;2022-09-12T04:05:44;9.73;;;5.65;;
59040;SDS011;44825;53.200;6.448;2022-09-12T04:08:14;7.45;;;5.45;;
59040;SDS011;44825;53.200;6.448;2022-09-12T04:10:41;8.25;;;6.13;;
59040;SDS011;44825;53.200;6.448;2022-09-12T04:13:08;8.38;;;6.60;;
59040;SDS011;44825;53.200;6.448;2022-09-12T04:15:36;7.97;;;5.80;;
59040;SDS011;44825;53.200;6.448;2022-09-12T04:18:03;8.35;;;7.00;;
59040;SDS011;44825;53.200;6.448;2022-09-12T04:20:31;9.15;;;7.60;;
59040;SDS011;44825;53.200;6.448;2022-09-12T04:22:58;9.95;;;7.22;;
59040;SDS011;44825;53.200;6.448;2022-09-12T04:25:27;8.65;;;6.95;;
59040;SDS011;44825;53.200;6.448;2022-09-12T04:27:55;10.63;;;8.20;;
59040;SDS011;44825;53.200;6.448;2022-09-12T04:30:23;9.88;;;7.55;;
59040;SDS011;44825;53.200;6.448;2022-09-12T04:32:50;11.10;;;8.85;;
59040;SDS011;44825;53.200;6.448;2022-09-12T04:35:17;13.82;;;10.00;;
59040;SDS011;44825;53.200;6.448;2022-09-12T04:37:45;13.63;;;9.82;;
59040;SDS011;44825;53.200;6.448;2022-09-12T04:40:12;12.45;;;10.13;;
59040;SDS011;44825;53.200;6.448;2022-09-12T04:42:40;12.95;;;11.25;;
59040;SDS011;44825;53.200;6.448;2022-09-12T04:45:08;19.23;;;12.70;;
59040;SDS011;44825;53.200;6.448;2022-09-12T04:47:36;15.88;;;12.93;;
59040;SDS011;44825;53.200;6.448;2022-09-12T04:50:03;21.15;;;14.57;;
59040;SDS011;44825;53.200;6.448;2022-09-12T04:52:31;16.30;;;14.07;;
59040;SDS011;44825;53.200;6.448;2022-09-12T04:54:58;17.05;;;14.20;;
59040;SDS011;44825;53.200;6.448;2022-09-12T04:57:25;20.10;;;15.85;;
59040;SDS011;44825;53.200;6.448;2022-09-12T04:59:54;17.05;;;15.13;;
59040;SDS011;44825;53.200;6.448;2022-09-12T05:02:21;19.50;;;15.35;;
59040;SDS011;44825;53.200;6.448;2022-09-12T05:04:49;18.85;;;15.38;;
59040;SDS011;44825;53.200;6.448;2022-09-12T05:07:17;21.63;;;15.50;;
59040;SDS011;44825;53.200;6.448;2022-09-12T05:09:44;21.60;;;17.10;;
59040;SDS011;44825;53.200;6.448;2022-09-12T05:12:11;17.85;;;15.90;;
59040;SDS011;44825;53.200;6.448;2022-09-12T05:14:39;20.88;;;16.40;;
59040;SDS011;44825;53.200;6.448;2022-09-12T05:17:08;21.25;;;17.17;;
59040;SDS011;44825;53.200;6.448;2022-09-12T05:19:35;20.23;;;16.92;;
59040;SDS011;44825;53.200;6.448;2022-09-12T05:22:03;21.73;;;16.52;;
59040;SDS011;44825;53.200;6.448;2022-09-12T05:24:31;21.40;;;15.88;;
59040;SDS011;44825;53.200;6.448;2022-09-12T05:26:59;22.77;;;19.15;;
59040;SDS011;44825;53.200;6.448;2022-09-12T05:29:28;20.20;;;16.77;;
59040;SDS011;44825;53.200;6.448;2022-09-12T05:31:55;21.30;;;15.70;;
59040;SDS011;44825;53.200;6.448;2022-09-12T05:34:24;23.02;;;17.75;;
59040;SDS011;44825;53.200;6.448;2022-09-12T05:36:52;20.48;;;16.45;;
59040;SDS011;44825;53.200;6.448;2022-09-12T05:39:19;18.77;;;16.45;;
59040;SDS011;44825;53.200;6.448;2022-09-12T05:41:47;20.92;;;16.20;;
59040;SDS011;44825;53.200;6.448;2022-09-12T05:44:14;21.17;;;17.60;;
59040;SDS011;44825;53.200;6.448;2022-09-12T05:46:42;21.45;;;16.90;;
59040;SDS011;44825;53.200;6.448;2022-09-12T05:49:13;19.63;;;15.90;;
59040;SDS011;44825;53.200;6.448;2022-09-12T05:51:42;22.40;;;17.80;;
59040;SDS011;44825;53.200;6.448;2022-09-12T05:54:11;20.77;;;16.35;;
59040;SDS011;44825;53.200;6.448;2022-09-12T05:56:40;23.30;;;17.70;;
59040;SDS011;44825;53.200;6.448;2022-09-12T05:59:10;20.35;;;16.27;;
59040;SDS011;44825;53.200;6.448;2022-09-12T06:01:38;20.40;;;16.70;;
59040;SDS011;44825;53.200;6.448;2022-09-12T06:04:06;24.50;;;18.90;;
59040;SDS011;44825;53.200;6.448;2022-09-12T06:06:35;22.58;;;16.58;;
59040;SDS011;44825;53.200;6.448;2022-09-12T06:09:05;24.38;;;18.05;;
59040;SDS011;44825;53.200;6.448;2022-09-12T06:11:33;21.00;;;16.63;;
59040;SDS011;44825;53.200;6.448;2022-09-12T06:14:01;20.30;;;16.88;;
59040;SDS011;44825;53.200;6.448;2022-09-12T06:16:31;22.70;;;17.02;;
59040;SDS011;44825;53.200;6.448;2022-09-12T06:19:00;21.05;;;17.50;;
59040;SDS011;44825;53.200;6.448;2022-09-12T06:21:29;23.27;;;18.00;;
59040;SDS011;44825;53.200;6.448;2022-09-12T06:23:56;22.30;;;17.48;;
59040;SDS011;44825;53.200;6.448;2022-09-12T06:26:26;22.02;;;17.75;;
59040;SDS011;44825;53.200;6.448;2022-09-12T06:28:54;22.40;;;17.95;;
59040;SDS011;44825;53.200;6.448;2022-09-12T06:31:23;28.38;;;18.15;;
59040;SDS011;44825;53.200;6.448;2022-09-12T06:33:52;21.60;;;17.98;;
59040;SDS011;44825;53.200;6.448;2022-09-12T06:36:24;23.15;;;18.25;;
59040;SDS011;44825;53.200;6.448;2022-09-12T06:38:53;25.85;;;20.05;;
59040;SDS011;44825;53.200;6.448;2022-09-12T06:41:22;25.70;;;20.10;;
59040;SDS011;44825;53.200;6.448;2022-09-12T06:43:53;27.67;;;20.67;;
59040;SDS011;44825;53.200;6.448;2022-09-12T06:46:20;26.85;;;20.80;;
59040;SDS011;44825;53.200;6.448;2022-09-12T06:48:48;28.23;;;21.50;;
59040;SDS011;44825;53.200;6.448;2022-09-12T06:51:15;28.73;;;22.30;;
59040;SDS011;44825;53.200;6.448;2022-09-12T06:53:44;27.50;;;21.38;;
59040;SDS011;44825;53.200;6.448;2022-09-12T06:56:13;30.75;;;22.77;;
59040;SDS011;44825;53.200;6.448;2022-09-12T06:58:41;31.98;;;24.45;;
59040;SDS011;44825;53.200;6.448;2022-09-12T07:01:11;34.53;;;23.88;;
59040;SDS011;44825;53.200;6.448;2022-09-12T07:03:41;33.38;;;25.45;;
59040;SDS011;44825;53.200;6.448;2022-09-12T07:06:10;34.33;;;25.25;;
59040;SDS011;44825;53.200;6.448;2022-09-12T07:08:39;33.65;;;25.52;;
59040;SDS011;44825;53.200;6.448;2022-09-12T07:11:09;33.00;;;24.08;;
59040;SDS011;44825;53.200;6.448;2022-09-12T07:13:38;33.40;;;25.48;;
59040;SDS011;44825;53.200;6.448;2022-09-12T07:16:06;33.72;;;25.15;;
59040;SDS011;44825;53.200;6.448;2022-09-12T07:18:36;35.28;;;26.00;;
59040;SDS011;44825;53.200;6.448;2022-09-12T07:21:05;36.50;;;26.50;;
59040;SDS011;44825;53.200;6.448;2022-09-12T07:23:34;32.38;;;25.42;;
59040;SDS011;44825;53.200;6.448;2022-09-12T07:26:02;33.97;;;25.98;;
59040;SDS011;44825;53.200;6.448;2022-09-12T07:28:31;36.03;;;26.77;;
59040;SDS011;44825;53.200;6.448;2022-09-12T07:31:04;35.65;;;24.80;;
59040;SDS011;44825;53.200;6.448;2022-09-12T07:33:32;36.70;;;26.65;;
59040;SDS011;44825;53.200;6.448;2022-09-12T07:36:02;38.83;;;26.63;;
59040;SDS011;44825;53.200;6.448;2022-09-12T07:38:30;40.53;;;25.90;;
59040;SDS011;44825;53.200;6.448;2022-09-12T07:40:58;43.38;;;28.67;;
59040;SDS011;44825;53.200;6.448;2022-09-12T07:43:26;38.60;;;28.67;;
59040;SDS011;44825;53.200;6.448;2022-09-12T07:45:54;41.22;;;26.63;;
59040;SDS011;44825;53.200;6.448;2022-09-12T07:48:21;46.10;;;31.15;;
59040;SDS011;44825;53.200;6.448;2022-09-12T07:50:56;40.92;;;28.45;;
59040;SDS011;44825;53.200;6.448;2022-09-12T07:53:25;43.78;;;29.85;;
59040;SDS011;44825;53.200;6.448;2022-09-12T07:55:56;41.83;;;29.63;;
59040;SDS011;44825;53.200;6.448;2022-09-12T07:58:23;42.33;;;30.00;;
59040;SDS011;44825;53.200;6.448;2022-09-12T08:00:51;43.55;;;30.13;;
59040;SDS011;44825;53.200;6.448;2022-09-12T08:03:18;43.15;;;30.90;;
59040;SDS011;44825;53.200;6.448;2022-09-12T08:05:46;41.00;;;28.80;;
59040;SDS011;44825;53.200;6.448;2022-09-12T08:08:13;45.55;;;31.75;;
59040;SDS011;44825;53.200;6.448;2022-09-12T08:10:41;49.25;;;31.70;;
59040;SDS011;44825;53.200;6.448;2022-09-12T08:13:09;44.28;;;31.58;;
59040;SDS011;44825;53.200;6.448;2022-09-12T08:15:36;46.80;;;32.80;;
59040;SDS011;44825;53.200;6.448;2022-09-12T08:18:03;48.53;;;33.97;;
59040;SDS011;44825;53.200;6.448;2022-09-12T08:20:31;47.13;;;33.47;;
59040;SDS011;44825;53.200;6.448;2022-09-12T08:22:58;48.35;;;33.97;;
59040;SDS011;44825;53.200;6.448;2022-09-12T08:25:26;50.72;;;34.10;;
59040;SDS011;44825;53.200;6.448;2022-09-12T08:27:54;53.92;;;35.30;;
59040;SDS011;44825;53.200;6.448;2022-09-12T08:30:22;52.45;;;35.40;;
59040;SDS011;44825;53.200;6.448;2022-09-12T08:32:49;48.70;;;34.60;;
59040;SDS011;44825;53.200;6.448;2022-09-12T08:35:16;50.65;;;35.80;;
59040;SDS011;44825;53.200;6.448;2022-09-12T08:37:44;48.83;;;33.58;;
59040;SDS011;44825;53.200;6.448;2022-09-12T08:40:13;51.95;;;35.17;;
59040;SDS011;44825;53.200;6.448;2022-09-12T08:42:46;49.83;;;34.30;;
59040;SDS011;44825;53.200;6.448;2022-09-12T08:45:22;48.17;;;33.17;;
59040;SDS011;44825;53.200;6.448;2022-09-12T08:47:59;51.10;;;34.45;;
59040;SDS011;44825;53.200;6.448;2022-09-12T08:50:30;49.72;;;34.65;;
59040;SDS011;44825;53.200;6.448;2022-09-12T08:52:58;49.97;;;33.63;;
59040;SDS011;44825;53.200;6.448;2022-09-12T08:55:29;53.05;;;34.83;;
59040;SDS011;44825;53.200;6.448;2022-09-12T08:57:59;52.25;;;36.08;;
59040;SDS011;44825;53.200;6.448;2022-09-12T09:00:32;52.75;;;33.80;;
59040;SDS011;44825;53.200;6.448;2022-09-12T09:06:10;48.63;;;31.98;;
59040;SDS011;44825;53.200;6.448;2022-09-12T09:08:54;49.22;;;33.88;;
59040;SDS011;44825;53.200;6.448;2022-09-12T09:11:37;51.95;;;34.05;;
59040;SDS011;44825;53.200;6.448;2022-09-12T09:14:24;50.33;;;33.92;;
59040;SDS011;44825;53.200;6.448;2022-09-12T09:17:15;48.97;;;32.97;;
59040;SDS011;44825;53.200;6.448;2022-09-12T09:19:47;44.58;;;32.53;;
59040;SDS011;44825;53.200;6.448;2022-09-12T09:22:20;47.42;;;32.05;;
59040;SDS011;44825;53.200;6.448;2022-09-12T09:24:56;46.38;;;32.58;;
59040;SDS011;44825;53.200;6.448;2022-09-12T09:27:28;46.50;;;32.08;;
59040;SDS011;44825;53.200;6.448;2022-09-12T09:29:59;47.13;;;30.95;;
59040;SDS011;44825;53.200;6.448;2022-09-12T09:32:30;46.92;;;31.35;;
59040;SDS011;44825;53.200;6.448;2022-09-12T09:37:29;41.22;;;29.08;;
59040;SDS011;44825;53.200;6.448;2022-09-12T09:40:05;42.90;;;29.40;;
59040;SDS011;44825;53.200;6.448;2022-09-12T09:42:43;44.97;;;30.67;;
59040;SDS011;44825;53.200;6.448;2022-09-12T09:45:20;49.33;;;30.27;;
59040;SDS011;44825;53.200;6.448;2022-09-12T09:47:51;42.75;;;29.15;;
59040;SDS011;44825;53.200;6.448;2022-09-12T09:50:23;42.65;;;29.40;;
59040;SDS011;44825;53.200;6.448;2022-09-12T09:52:51;43.80;;;30.13;;
59040;SDS011;44825;53.200;6.448;2022-09-12T09:55:22;43.25;;;31.30;;
59040;SDS011;44825;53.200;6.448;2022-09-12T09:57:53;42.83;;;29.83;;
59040;SDS011;44825;53.200;6.448;2022-09-12T10:00:26;42.40;;;30.42;;
59040;SDS011;44825;53.200;6.448;2022-09-12T10:03:02;42.65;;;28.73;;
59040;SDS011;44825;53.200;6.448;2022-09-12T10:05:46;42.33;;;28.95;;
59040;SDS011;44825;53.200;6.448;2022-09-12T10:08:21;39.85;;;27.38;;
59040;SDS011;44825;53.200;6.448;2022-09-12T10:10:54;34.40;;;23.58;;
59040;SDS011;44825;53.200;6.448;2022-09-12T10:13:24;36.78;;;23.90;;
59040;SDS011;44825;53.200;6.448;2022-09-12T10:15:57;38.60;;;23.65;;
59040;SDS011;44825;53.200;6.448;2022-09-12T10:18:33;31.83;;;20.83;;
59040;SDS011;44825;53.200;6.448;2022-09-12T10:21:11;30.85;;;19.65;;
59040;SDS011;44825;53.200;6.448;2022-09-12T10:23:43;30.20;;;19.05;;
59040;SDS011;44825;53.200;6.448;2022-09-12T10:26:12;29.55;;;20.27;;
59040;SDS011;44825;53.200;6.448;2022-09-12T10:28:42;31.23;;;20.33;;
59040;SDS011;44825;53.200;6.448;2022-09-12T10:31:13;34.00;;;22.23;;
59040;SDS011;44825;53.200;6.448;2022-09-12T10:33:45;26.88;;;18.38;;
59040;SDS011;44825;53.200;6.448;2022-09-12T10:36:17;27.90;;;18.17;;
59040;SDS011;44825;53.200;6.448;2022-09-12T10:38:48;28.05;;;18.20;;
59040;SDS011;44825;53.200;6.448;2022-09-12T10:41:16;25.85;;;17.02;;
59040;SDS011;44825;53.200;6.448;2022-09-12T10:43:45;23.00;;;16.92;;
59040;SDS011;44825;53.200;6.448;2022-09-12T10:46:22;22.85;;;15.00;;
59040;SDS011;44825;53.200;6.448;2022-09-12T10:49:19;23.20;;;15.82;;
59040;SDS011;44825;53.200;6.448;2022-09-12T10:54:48;26.08;;;16.98;;
59040;SDS011;44825;53.200;6.448;2022-09-12T10:57:29;26.42;;;17.30;;
59040;SDS011;44825;53.200;6.448;2022-09-12T11:00:15;26.08;;;16.85;;
59040;SDS011;44825;53.200;6.448;2022-09-12T11:02:56;25.73;;;16.58;;
59040;SDS011;44825;53.200;6.448;2022-09-12T11:05:37;24.05;;;15.77;;
59040;SDS011;44825;53.200;6.448;2022-09-12T11:08:24;20.58;;;14.30;;
59040;SDS011;44825;53.200;6.448;2022-09-12T11:11:06;22.05;;;12.85;;
59040;SDS011;44825;53.200;6.448;2022-09-12T11:13:46;20.23;;;13.68;;
59040;SDS011;44825;53.200;6.448;2022-09-12T11:16:23;18.67;;;12.00;;
59040;SDS011;44825;53.200;6.448;2022-09-12T11:22:11;19.10;;;12.05;;
59040;SDS011;44825;53.200;6.448;2022-09-12T11:25:00;18.95;;;11.80;;
59040;SDS011;44825;53.200;6.448;2022-09-12T11:30:23;15.30;;;9.15;;
59040;SDS011;44825;53.200;6.448;2022-09-12T11:32:54;17.80;;;11.27;;
59040;SDS011;44825;53.200;6.448;2022-09-12T11:35:33;15.32;;;9.10;;
59040;SDS011;44825;53.200;6.448;2022-09-12T11:38:19;13.27;;;8.32;;
59040;SDS011;44825;53.200;6.448;2022-09-12T11:41:05;15.35;;;10.10;;
59040;SDS011;44825;53.200;6.448;2022-09-12T11:43:38;15.38;;;10.10;;
59040;SDS011;44825;53.200;6.448;2022-09-12T11:46:11;10.68;;;6.35;;
59040;SDS011;44825;53.200;6.448;2022-09-12T11:48:46;11.25;;;6.05;;
59040;SDS011;44825;53.200;6.448;2022-09-12T11:51:23;11.27;;;6.15;;
59040;SDS011;44825;53.200;6.448;2022-09-12T11:53:58;11.07;;;6.75;;
59040;SDS011;44825;53.200;6.448;2022-09-12T11:56:30;11.73;;;6.43;;
59040;SDS011;44825;53.200;6.448;2022-09-12T11:59:01;10.57;;;6.47;;
59040;SDS011;44825;53.200;6.448;2022-09-12T12:01:37;10.18;;;6.65;;
59040;SDS011;44825;53.200;6.448;2022-09-12T12:04:07;12.20;;;7.00;;
59040;SDS011;44825;53.200;6.448;2022-09-12T12:06:42;10.15;;;6.20;;
59040;SDS011;44825;53.200;6.448;2022-09-12T12:09:16;12.00;;;7.78;;
59040;SDS011;44825;53.200;6.448;2022-09-12T12:11:44;10.18;;;6.78;;
59040;SDS011;44825;53.200;6.448;2022-09-12T12:14:16;9.73;;;5.93;;
59040;SDS011;44825;53.200;6.448;2022-09-12T12:16:46;11.30;;;5.18;;
59040;SDS011;44825;53.200;6.448;2022-09-12T12:19:23;9.25;;;5.75;;
59040;SDS011;44825;53.200;6.448;2022-09-12T12:22:04;8.77;;;5.88;;
59040;SDS011;44825;53.200;6.448;2022-09-12T12:25:01;8.68;;;4.93;;
59040;SDS011;44825;53.200;6.448;2022-09-12T12:27:45;13.25;;;7.40;;
59040;SDS011;44825;53.200;6.448;2022-09-12T12:36:34;8.98;;;5.55;;
59040;SDS011;44825;53.200;6.448;2022-09-12T12:45:57;9.05;;;4.63;;
59040;SDS011;44825;53.200;6.448;2022-09-12T12:48:46;7.75;;;4.18;;
59040;SDS011;44825;53.200;6.448;2022-09-12T12:51:28;7.53;;;4.68;;
59040;SDS011;44825;53.200;6.448;2022-09-12T12:54:03;8.23;;;4.95;;
59040;SDS011;44825;53.200;6.448;2022-09-12T12:56:59;9.30;;;5.22;;
59040;SDS011;44825;53.200;6.448;2022-09-12T12:59:31;9.88;;;5.65;;
59040;SDS011;44825;53.200;6.448;2022-09-12T13:02:01;10.98;;;5.65;;
59040;SDS011;44825;53.200;6.448;2022-09-12T13:04:30;10.82;;;5.88;;
59040;SDS011;44825;53.200;6.448;2022-09-12T13:06:59;12.23;;;5.90;;
59040;SDS011;44825;53.200;6.448;2022-09-12T13:09:31;9.18;;;4.80;;
59040;SDS011;44825;53.200;6.448;2022-09-12T13:12:01;7.47;;;4.22;;
59040;SDS011;44825;53.200;6.448;2022-09-12T13:14:33;7.35;;;3.90;;
59040;SDS011;44825;53.200;6.448;2022-09-12T13:17:04;7.55;;;3.88;;
59040;SDS011;44825;53.200;6.448;2022-09-12T13:19:35;7.70;;;4.25;;
59040;SDS011;44825;53.200;6.448;2022-09-12T13:22:04;8.25;;;4.60;;
59040;SDS011;44825;53.200;6.448;2022-09-12T13:24:32;7.38;;;4.30;;
59040;SDS011;44825;53.200;6.448;2022-09-12T13:27:14;11.55;;;6.50;;
59040;SDS011;44825;53.200;6.448;2022-09-12T13:29:43;9.82;;;6.00;;
59040;SDS011;44825;53.200;6.448;2022-09-12T13:32:11;11.30;;;5.55;;
59040;SDS011;44825;53.200;6.448;2022-09-12T13:34:45;10.20;;;5.63;;
59040;SDS011;44825;53.200;6.448;2022-09-12T13:40:26;10.73;;;5.65;;
59040;SDS011;44825;53.200;6.448;2022-09-12T13:45:51;9.65;;;4.35;;
59040;SDS011;44825;53.200;6.448;2022-09-12T13:48:20;8.23;;;5.20;;
59040;SDS011;44825;53.200;6.448;2022-09-12T13:50:51;10.07;;;6.55;;
59040;SDS011;44825;53.200;6.448;2022-09-12T13:53:21;11.30;;;5.40;;
59040;SDS011;44825;53.200;6.448;2022-09-12T13:55:52;8.05;;;4.15;;
59040;SDS011;44825;53.200;6.448;2022-09-12T13:58:22;8.30;;;4.53;;
59040;SDS011;44825;53.200;6.448;2022-09-12T14:01:01;9.70;;;4.38;;
59040;SDS011;44825;53.200;6.448;2022-09-12T14:03:38;12.68;;;6.40;;
59040;SDS011;44825;53.200;6.448;2022-09-12T14:06:24;16.27;;;6.53;;
59040;SDS011;44825;53.200;6.448;2022-09-12T14:08:53;10.85;;;5.90;;
59040;SDS011;44825;53.200;6.448;2022-09-12T14:11:25;11.73;;;6.40;;
59040;SDS011;44825;53.200;6.448;2022-09-12T14:13:54;10.25;;;6.10;;
59040;SDS011;44825;53.200;6.448;2022-09-12T14:16:21;11.73;;;7.22;;
59040;SDS011;44825;53.200;6.448;2022-09-12T14:18:53;13.10;;;7.50;;
59040;SDS011;44825;53.200;6.448;2022-09-12T14:21:25;13.05;;;7.50;;
59040;SDS011;44825;53.200;6.448;2022-09-12T14:23:59;11.90;;;7.82;;
59040;SDS011;44825;53.200;6.448;2022-09-12T14:26:32;10.85;;;6.57;;
59040;SDS011;44825;53.200;6.448;2022-09-12T14:29:01;12.00;;;6.97;;
59040;SDS011;44825;53.200;6.448;2022-09-12T14:31:31;13.43;;;6.50;;
59040;SDS011;44825;53.200;6.448;2022-09-12T14:34:09;9.75;;;5.90;;
59040;SDS011;44825;53.200;6.448;2022-09-12T14:36:39;11.88;;;5.90;;
59040;SDS011;44825;53.200;6.448;2022-09-12T14:39:20;9.35;;;5.85;;
59040;SDS011;44825;53.200;6.448;2022-09-12T14:41:59;10.90;;;5.88;;
59040;SDS011;44825;53.200;6.448;2022-09-12T14:44:30;11.27;;;6.57;;
59040;SDS011;44825;53.200;6.448;2022-09-12T14:47:00;10.95;;;5.88;;
59040;SDS011;44825;53.200;6.448;2022-09-12T14:49:39;10.88;;;5.82;;
59040;SDS011;44825;53.200;6.448;2022-09-12T14:52:14;10.48;;;5.85;;
59040;SDS011;44825;53.200;6.448;2022-09-12T14:54:57;12.52;;;5.95;;
59040;SDS011;44825;53.200;6.448;2022-09-12T14:57:33;11.65;;;4.78;;
59040;SDS011;44825;53.200;6.448;2022-09-12T15:00:21;7.28;;;4.07;;
59040;SDS011;44825;53.200;6.448;2022-09-12T15:02:49;5.25;;;3.50;;
59040;SDS011;44825;53.200;6.448;2022-09-12T15:05:25;5.68;;;3.42;;
59040;SDS011;44825;53.200;6.448;2022-09-12T15:07:54;9.30;;;3.95;;
59040;SDS011;44825;53.200;6.448;2022-09-12T15:10:24;8.20;;;4.20;;
59040;SDS011;44825;53.200;6.448;2022-09-12T15:15:49;7.75;;;4.68;;
59040;SDS011;44825;53.200;6.448;2022-09-12T15:18:18;7.93;;;4.53;;
59040;SDS011;44825;53.200;6.448;2022-09-12T15:20:48;9.15;;;4.90;;
59040;SDS011;44825;53.200;6.448;2022-09-12T15:23:18;8.15;;;5.32;;
59040;SDS011;44825;53.200;6.448;2022-09-12T15:25:52;8.85;;;5.25;;
59040;SDS011;44825;53.200;6.448;2022-09-12T15:28:19;8.10;;;4.78;;
59040;SDS011;44825;53.200;6.448;2022-09-12T15:30:48;7.10;;;5.05;;
59040;SDS011;44825;53.200;6.448;2022-09-12T15:33:18;10.30;;;5.15;;
59040;SDS011;44825;53.200;6.448;2022-09-12T15:35:51;6.95;;;4.38;;
59040;SDS011;44825;53.200;6.448;2022-09-12T15:38:18;8.15;;;4.63;;
59040;SDS011;44825;53.200;6.448;2022-09-12T15:40:48;10.70;;;5.10;;